createdAt,value
2019-05-02T00:01:42.723Z,114.87
2019-05-02T00:04:19.584Z,119.03
2019-05-02T00:06:46.001Z,125.67
2019-05-02T00:09:15.462Z,116.30
2019-05-02T00:11:58.347Z,120.93
2019-05-02T00:14:16.856Z,116.77
2019-05-02T00:16:49.301Z,118.70
2019-05-02T00:19:17.654Z,117.57
2019-05-02T00:21:47.197Z,118.57
2019-05-02T00:24:16.674Z,118.60
2019-05-02T00:26:46.241Z,122.80
2019-05-02T00:29:19.036Z,119.37
2019-05-02T00:31:48.850Z,127.83
2019-05-02T00:34:18.469Z,108.30
2019-05-02T00:36:48.312Z,114.37
2019-05-02T00:39:17.961Z,116.90
2019-05-02T00:41:47.435Z,118.77
2019-05-02T00:44:16.897Z,108.87
2019-05-02T00:46:46.513Z,112.17
2019-05-02T00:49:16.002Z,127.27
2019-05-02T00:51:45.979Z,116.00
2019-05-02T00:54:19.196Z,127.83
2019-05-02T00:56:46.906Z,123.07
2019-05-02T00:59:16.799Z,109.07
2019-05-02T01:01:53.201Z,109.73
2019-05-02T01:07:05.710Z,116.50
2019-05-02T01:09:35.279Z,113.53
2019-05-02T01:12:08.425Z,116.77
2019-05-02T01:14:36.942Z,106.17
2019-05-02T01:17:06.927Z,109.97
2019-05-02T01:19:36.816Z,101.90
2019-05-02T01:22:10.548Z,102.37
2019-05-02T01:24:39.610Z,104.27
2019-05-02T01:27:27.117Z,115.00
2019-05-02T01:30:05.890Z,102.60
2019-05-02T01:32:42.526Z,99.57
2019-05-02T01:35:17.872Z,109.47
2019-05-02T01:38:15.675Z,103.33
2019-05-02T01:40:48.218Z,104.10
2019-05-02T01:43:24.037Z,112.13
2019-05-02T01:45:51.791Z,103.47
2019-05-02T01:48:22.648Z,113.77
2019-05-02T01:50:53.150Z,100.00
2019-05-02T01:53:23.107Z,107.87
2019-05-02T01:55:57.259Z,99.83
2019-05-02T01:58:23.965Z,115.53
2019-05-02T02:00:53.695Z,107.37
2019-05-02T02:03:23.260Z,121.77
2019-05-02T02:05:52.845Z,123.63
2019-05-02T02:08:22.392Z,117.03
2019-05-02T02:10:56.490Z,131.10
2019-05-02T02:13:23.536Z,124.37
2019-05-02T02:15:53.098Z,127.73
2019-05-02T02:18:27.612Z,119.87
2019-05-02T02:21:13.943Z,126.27
2019-05-02T02:24:05.946Z,129.73
2019-05-02T02:26:35.411Z,109.63
2019-05-02T02:29:07.977Z,108.53
2019-05-02T02:31:40.010Z,134.10
2019-05-02T02:34:07.782Z,117.97
2019-05-02T02:36:37.359Z,116.97
2019-05-02T02:39:14.572Z,126.53
2019-05-02T02:41:39.084Z,121.50
2019-05-02T02:44:39.940Z,119.63
2019-05-02T02:47:12.171Z,123.60
2019-05-02T02:49:37.962Z,120.87
2019-05-02T02:52:07.846Z,114.00
2019-05-02T02:54:43.079Z,105.43
2019-05-02T02:57:21.926Z,126.53
2019-05-02T02:59:40.131Z,113.70
2019-05-02T03:02:11.833Z,124.40
2019-05-02T03:04:44.047Z,105.03
2019-05-02T03:07:24.203Z,98.13
2019-05-02T03:09:43.672Z,98.10
2019-05-02T03:12:36.298Z,104.03
2019-05-02T03:15:04.812Z,97.13
2019-05-02T03:17:34.363Z,100.67
2019-05-02T03:20:04.886Z,105.43
2019-05-02T03:22:41.064Z,114.10
2019-05-02T03:25:05.687Z,105.10
2019-05-02T03:27:37.258Z,100.90
2019-05-02T03:30:06.678Z,108.83
2019-05-02T03:32:36.812Z,102.03
2019-05-02T03:35:06.472Z,99.63
2019-05-02T03:37:37.127Z,103.33
2019-05-02T03:40:06.612Z,96.23
2019-05-02T03:42:43.881Z,95.00
2019-05-02T03:45:07.432Z,93.93
2019-05-02T03:47:43.724Z,88.17
2019-05-02T03:50:09.425Z,94.20
2019-05-02T03:52:43.498Z,86.83
2019-05-02T03:55:11.019Z,101.40
2019-05-02T03:57:42.218Z,90.83
2019-05-02T04:00:20.159Z,86.93
2019-05-02T04:02:43.598Z,82.90
2019-05-02T04:05:13.224Z,83.83
2019-05-02T04:07:43.464Z,83.03
2019-05-02T04:10:19.651Z,82.97
2019-05-02T04:12:53.065Z,78.60
2019-05-02T04:15:18.694Z,79.00
2019-05-02T04:17:48.223Z,78.57
2019-05-02T04:20:18.479Z,76.33
2019-05-02T04:22:49.083Z,79.63
2019-05-02T04:25:19.753Z,78.20
2019-05-02T04:27:50.265Z,76.07
2019-05-02T04:30:19.828Z,76.47
2019-05-02T04:32:55.293Z,83.77
2019-05-02T04:35:20.793Z,84.60
2019-05-02T04:37:50.259Z,73.37
2019-05-02T04:40:20.943Z,75.60
2019-05-02T04:43:01.037Z,76.97
2019-05-02T04:45:29.457Z,76.27
2019-05-02T04:47:58.515Z,75.97
2019-05-02T04:50:25.570Z,77.17
2019-05-02T04:52:59.116Z,72.30
2019-05-02T04:55:32.299Z,72.73
2019-05-02T04:58:01.675Z,71.60
2019-05-02T05:00:29.885Z,71.47
2019-05-02T05:02:59.720Z,73.67
2019-05-02T05:05:31.279Z,73.83
2019-05-02T05:08:00.742Z,71.50
2019-05-02T05:10:40.098Z,75.43
2019-05-02T05:13:01.387Z,71.53
2019-05-02T05:15:40.285Z,67.27
2019-05-02T05:18:04.434Z,73.10
2019-05-02T05:20:33.345Z,69.60
2019-05-02T05:23:03.890Z,71.27
2019-05-02T05:25:39.085Z,70.70
2019-05-02T05:28:09.080Z,71.97
2019-05-02T05:30:45.207Z,68.93
2019-05-02T05:33:10.412Z,64.73
2019-05-02T05:35:43.380Z,70.63
2019-05-02T05:38:12.046Z,68.80
2019-05-02T05:40:41.622Z,70.07
2019-05-02T05:43:15.483Z,67.90
2019-05-02T05:45:53.496Z,62.63
2019-05-02T05:48:14.495Z,63.37
2019-05-02T05:50:44.069Z,64.00
2019-05-02T05:53:17.220Z,67.00
2019-05-02T05:55:48.115Z,71.17
2019-05-02T05:58:18.821Z,69.57
2019-05-02T06:00:53.820Z,62.23
2019-05-02T06:03:19.752Z,59.50
2019-05-02T06:05:49.256Z,60.33
2019-05-02T06:08:19.938Z,59.33
2019-05-02T06:10:49.682Z,61.37
2019-05-02T06:13:19.321Z,53.27
2019-05-02T06:16:01.274Z,58.33
2019-05-02T06:18:20.425Z,57.37
2019-05-02T06:20:49.987Z,56.40
2019-05-02T06:23:21.330Z,61.47
2019-05-02T06:25:50.845Z,55.70
2019-05-02T06:28:20.368Z,53.73
2019-05-02T06:30:49.960Z,58.50
2019-05-02T06:33:19.455Z,54.73
2019-05-02T06:35:51.900Z,54.10
2019-05-02T06:38:21.680Z,54.77
2019-05-02T06:40:51.382Z,53.30
2019-05-02T06:43:20.872Z,54.80
2019-05-02T06:45:50.533Z,52.70
2019-05-02T06:48:20.166Z,54.03
2019-05-02T06:50:50.269Z,56.47
2019-05-02T06:53:20.066Z,54.40
2019-05-02T06:55:49.884Z,52.40
2019-05-02T06:58:19.478Z,51.97
2019-05-02T07:00:57.405Z,53.73
2019-05-02T07:03:20.378Z,51.20
2019-05-02T07:05:49.931Z,51.10
2019-05-02T07:08:19.884Z,51.60
2019-05-02T07:10:49.419Z,51.20
2019-05-02T07:13:19.338Z,50.63
2019-05-02T07:16:15.602Z,51.67
2019-05-02T07:18:49.601Z,48.57
2019-05-02T07:21:23.362Z,51.80
2019-05-02T07:23:53.693Z,50.77
2019-05-02T07:26:23.301Z,50.90
2019-05-02T07:28:52.995Z,49.17
2019-05-02T07:31:22.938Z,43.73
2019-05-02T07:33:52.514Z,44.07
2019-05-02T07:36:22.081Z,41.17
2019-05-02T07:38:51.982Z,45.37
2019-05-02T07:41:24.110Z,47.27
2019-05-02T07:43:56.258Z,47.43
2019-05-02T07:46:23.868Z,49.47
2019-05-02T07:48:54.682Z,52.97
2019-05-02T07:51:24.739Z,54.87
2019-05-02T07:53:55.809Z,59.93
2019-05-02T07:56:25.942Z,64.20
2019-05-02T07:58:55.461Z,60.17
2019-05-02T08:01:25.025Z,62.50
2019-05-02T08:03:54.870Z,66.97
2019-05-02T08:06:34.892Z,67.70
2019-05-02T08:08:55.616Z,65.10
2019-05-02T08:11:25.166Z,71.20
2019-05-02T08:14:00.137Z,77.13
2019-05-02T08:16:27.334Z,74.50
2019-05-02T08:19:01.355Z,74.13
2019-05-02T08:21:32.600Z,72.93
2019-05-02T08:24:02.283Z,76.90
2019-05-02T08:26:53.361Z,72.87
2019-05-02T08:29:23.419Z,71.57
2019-05-02T08:31:53.478Z,73.10
2019-05-02T08:34:30.346Z,73.83
2019-05-02T08:37:03.311Z,65.17
2019-05-02T08:39:33.772Z,64.67
2019-05-02T08:42:02.693Z,68.77
2019-05-02T08:44:32.263Z,67.80
2019-05-02T08:47:02.222Z,67.47
2019-05-02T08:49:32.122Z,64.13
2019-05-02T08:52:01.667Z,64.23
2019-05-02T08:54:32.825Z,65.57
2019-05-02T08:57:02.721Z,65.17
2019-05-02T08:59:32.239Z,62.80
2019-05-02T09:02:01.764Z,60.40
2019-05-02T09:04:31.390Z,65.97
2019-05-02T09:07:01.514Z,65.97
2019-05-02T09:09:31.169Z,67.07
2019-05-02T09:12:11.381Z,61.90
2019-05-02T09:14:32.320Z,63.83
2019-05-02T09:17:08.854Z,67.27
2019-05-02T09:19:34.967Z,70.83
2019-05-02T09:22:07.587Z,66.15
2019-05-02T09:24:35.720Z,67.92
2019-05-02T09:27:05.320Z,69.53
2019-05-02T09:29:37.413Z,71.17
2019-05-02T09:32:06.400Z,67.35
2019-05-02T09:34:37.035Z,68.17
2019-05-02T09:37:06.594Z,61.10
2019-05-02T09:39:36.643Z,57.75
2019-05-02T09:42:06.682Z,62.30
2019-05-02T09:44:37.430Z,59.85
2019-05-02T09:47:09.032Z,61.80
2019-05-02T09:49:43.568Z,64.30
2019-05-02T09:52:11.791Z,65.52
2019-05-02T09:54:45.896Z,63.98
2019-05-02T09:57:12.993Z,62.03
2019-05-02T09:59:50.278Z,64.20
2019-05-02T10:02:13.860Z,62.30
2019-05-02T10:04:44.154Z,62.23
2019-05-02T10:07:15.525Z,61.92
2019-05-02T10:09:45.192Z,56.10
2019-05-02T10:12:14.846Z,54.13
2019-05-02T10:14:44.444Z,51.10
2019-05-02T10:17:14.382Z,56.18
2019-05-02T10:19:49.549Z,54.85
2019-05-02T10:22:15.227Z,55.75
2019-05-02T10:24:44.692Z,58.02
2019-05-02T10:27:14.230Z,55.73
2019-05-02T10:29:44.264Z,59.42
2019-05-02T10:32:16.670Z,56.20
2019-05-02T10:34:50.577Z,57.83
2019-05-02T10:37:16.496Z,52.55
2019-05-02T10:39:46.167Z,58.25
2019-05-02T10:42:16.008Z,53.38
2019-05-02T10:44:45.914Z,56.65
2019-05-02T10:47:15.467Z,53.28
2019-05-02T10:49:55.184Z,54.95
2019-05-02T10:52:29.639Z,56.23
2019-05-02T10:54:57.211Z,56.15
2019-05-02T10:57:26.820Z,55.55
2019-05-02T10:59:56.597Z,54.53
2019-05-02T11:02:37.830Z,52.55
2019-05-02T11:05:16.768Z,49.77
2019-05-02T11:07:43.562Z,44.90
2019-05-02T11:10:13.146Z,47.60
2019-05-02T11:12:52.654Z,54.63
2019-05-02T11:15:41.838Z,50.48
2019-05-02T11:18:12.693Z,50.15
2019-05-02T11:20:42.279Z,51.53
2019-05-02T11:23:12.732Z,50.83
2019-05-02T11:25:42.371Z,54.50
2019-05-02T11:28:12.451Z,49.63
2019-05-02T11:30:43.231Z,52.08
2019-05-02T11:33:13.519Z,52.13
2019-05-02T11:35:49.208Z,46.92
2019-05-02T11:38:15.150Z,42.53
2019-05-02T11:40:45.009Z,42.73
2019-05-02T11:43:14.564Z,44.13
2019-05-02T11:45:44.134Z,44.83
2019-05-02T11:48:14.042Z,50.65
2019-05-02T11:50:43.684Z,50.65
2019-05-02T11:53:24.863Z,48.33
2019-05-02T11:55:44.371Z,46.18
2019-05-02T11:58:13.849Z,47.43
2019-05-02T12:00:48.265Z,45.45
2019-05-02T12:03:42.159Z,45.83
2019-05-02T12:06:16.158Z,45.03
2019-05-02T12:08:47.722Z,39.15
2019-05-02T12:11:23.169Z,37.00
2019-05-02T12:13:56.930Z,38.25
2019-05-02T12:16:24.496Z,40.40
2019-05-02T12:19:07.898Z,41.25
2019-05-02T12:21:25.596Z,41.60
2019-05-02T12:23:55.422Z,41.63
2019-05-02T12:26:24.959Z,32.95
2019-05-02T12:28:55.162Z,34.78
2019-05-02T12:31:28.708Z,35.23
2019-05-02T12:33:59.608Z,35.20
2019-05-02T12:36:29.528Z,32.50
2019-05-02T12:39:02.265Z,31.35
2019-05-02T12:41:33.433Z,29.82
2019-05-02T12:44:03.135Z,30.48
2019-05-02T12:46:33.055Z,30.92
2019-05-02T12:49:03.067Z,31.62
2019-05-02T12:51:32.710Z,32.17
2019-05-02T12:54:02.502Z,30.95
2019-05-02T12:56:32.474Z,30.65
2019-05-02T12:59:02.586Z,27.42
2019-05-02T13:01:33.378Z,26.68
2019-05-02T13:04:08.728Z,24.35
2019-05-02T13:06:38.221Z,30.75
2019-05-02T13:09:08.842Z,32.20
2019-05-02T13:12:09.917Z,29.82
2019-05-02T13:14:39.569Z,32.88
2019-05-02T13:17:09.601Z,31.80
2019-05-02T13:19:41.360Z,32.50
2019-05-02T13:22:41.980Z,34.00
2019-05-02T13:25:14.305Z,29.52
2019-05-02T13:27:47.952Z,32.00
2019-05-02T13:30:27.192Z,30.15
2019-05-02T13:33:00.146Z,26.68
2019-05-02T13:35:51.985Z,27.22
2019-05-02T13:38:22.640Z,25.23
2019-05-02T13:40:52.403Z,28.90
2019-05-02T13:43:24.834Z,29.90
2019-05-02T13:46:12.445Z,28.52
2019-05-02T13:48:44.363Z,29.95
2019-05-02T13:51:14.458Z,28.32
2019-05-02T13:53:56.328Z,31.30
2019-05-02T13:56:45.169Z,27.98
2019-05-02T13:59:15.444Z,30.23
2019-05-02T14:01:45.549Z,27.95
2019-05-02T14:04:15.271Z,29.98
2019-05-02T14:06:44.839Z,26.12
2019-05-02T14:09:26.449Z,26.77
2019-05-02T14:12:06.783Z,23.40
2019-05-02T14:14:36.269Z,25.43
2019-05-02T14:17:05.899Z,25.30
2019-05-02T14:19:44.553Z,29.82
2019-05-02T14:22:32.400Z,38.75
2019-05-02T14:25:03.495Z,49.77
2019-05-02T14:27:33.060Z,49.08
2019-05-02T14:30:02.711Z,50.60
2019-05-02T14:32:34.182Z,51.73
2019-05-02T14:35:18.703Z,56.95
2019-05-02T14:38:07.747Z,54.98
2019-05-02T14:41:06.085Z,58.60
2019-05-02T14:43:55.951Z,59.50
2019-05-02T14:46:37.406Z,63.02
2019-05-02T14:48:57.898Z,59.63
2019-05-02T14:51:28.154Z,60.63
2019-05-02T14:54:03.565Z,60.58
2019-05-02T14:56:52.642Z,63.40
2019-05-02T14:59:22.894Z,62.03
2019-05-02T15:01:57.920Z,62.93
2019-05-02T15:04:26.201Z,63.08
2019-05-02T15:06:55.796Z,64.27
2019-05-02T15:09:27.047Z,62.60
2019-05-02T15:12:02.392Z,66.53
2019-05-02T15:14:32.906Z,63.33
2019-05-02T15:17:03.110Z,62.48
2019-05-02T15:19:33.172Z,65.05
2019-05-02T15:22:02.875Z,67.62
2019-05-02T15:24:37.559Z,60.10
2019-05-02T15:27:12.187Z,61.92
2019-05-02T15:29:36.602Z,60.95
2019-05-02T15:32:30.079Z,60.33
2019-05-02T15:35:21.983Z,62.70
2019-05-02T15:37:49.322Z,61.40
2019-05-02T15:40:47.307Z,58.98
2019-05-02T15:42:52.221Z,60.05
2019-05-02T15:45:23.797Z,58.58
2019-05-02T15:47:53.519Z,57.10
2019-05-02T15:50:25.491Z,33.58
2019-05-02T15:53:09.964Z,27.93
2019-05-02T15:55:39.535Z,33.50
2019-05-02T15:58:16.916Z,41.08
2019-05-02T16:00:49.127Z,49.60
2019-05-02T16:03:19.920Z,53.50
2019-05-02T16:05:49.529Z,59.90
2019-05-02T16:08:19.224Z,64.90
2019-05-02T16:10:48.826Z,64.27
2019-05-02T16:13:18.434Z,58.20
2019-05-02T16:15:48.111Z,53.10
2019-05-02T16:18:17.685Z,58.17
2019-05-02T16:21:09.694Z,57.75
2019-05-02T16:23:42.442Z,47.05
2019-05-02T16:26:12.085Z,43.23
2019-05-02T16:28:45.482Z,51.57
2019-05-02T16:31:17.054Z,48.97
2019-05-02T16:33:49.778Z,44.53
2019-05-02T16:36:17.329Z,48.68
2019-05-02T16:38:46.892Z,46.63
2019-05-02T16:41:16.474Z,48.55
2019-05-02T16:43:46.041Z,43.93
2019-05-02T16:46:15.635Z,43.60
2019-05-02T16:48:45.824Z,42.17
2019-05-02T16:51:29.894Z,39.93
2019-05-02T16:53:46.882Z,42.60
2019-05-02T16:56:16.401Z,44.70
2019-05-02T16:58:47.196Z,45.80
2019-05-02T17:01:26.567Z,46.00
2019-05-02T17:03:48.113Z,47.83
2019-05-02T17:06:22.454Z,50.43
2019-05-02T17:09:02.321Z,49.40
2019-05-02T17:11:37.044Z,47.62
2019-05-02T17:14:11.447Z,50.77
2019-05-02T17:16:38.837Z,49.87
2019-05-02T17:19:09.651Z,47.23
2019-05-02T17:21:52.733Z,50.53
2019-05-02T17:24:12.550Z,43.27
2019-05-02T17:26:42.583Z,43.67
2019-05-02T17:29:16.475Z,38.03
2019-05-02T17:31:44.649Z,40.87
2019-05-02T17:34:14.908Z,39.80
2019-05-02T17:36:45.795Z,43.87
2019-05-02T17:39:15.427Z,40.20
2019-05-02T17:41:45.765Z,36.43
2019-05-02T17:44:18.388Z,39.37
2019-05-02T17:46:50.891Z,41.50
2019-05-02T17:49:18.269Z,43.30
2019-05-02T17:52:06.204Z,38.80
2019-05-02T17:54:37.244Z,40.10
2019-05-02T17:57:08.678Z,48.27
2019-05-02T17:59:38.509Z,39.90
2019-05-02T18:02:14.227Z,44.80
2019-05-02T18:04:41.783Z,48.47
2019-05-02T18:07:12.181Z,44.73
2019-05-02T18:09:41.918Z,48.23
2019-05-02T18:12:14.890Z,52.47
2019-05-02T18:14:43.135Z,51.97
2019-05-02T18:17:12.834Z,50.47
2019-05-02T18:19:42.749Z,53.53
2019-05-02T18:22:23.427Z,51.33
2019-05-02T18:24:46.388Z,56.43
2019-05-02T18:27:15.140Z,57.27
2019-05-02T18:29:45.663Z,69.90
2019-05-02T18:32:17.625Z,55.17
2019-05-02T18:34:47.108Z,57.57
2019-05-02T18:37:18.598Z,59.47
2019-05-02T18:39:53.246Z,55.80
2019-05-02T18:42:21.912Z,53.67
2019-05-02T18:44:53.037Z,59.80
2019-05-02T18:47:24.786Z,63.83
2019-05-02T18:50:00.474Z,60.50
2019-05-02T18:52:35.603Z,64.90
2019-05-02T18:54:55.313Z,64.17
2019-05-02T18:57:26.073Z,57.47
2019-05-02T18:59:56.561Z,63.10
2019-05-02T19:02:32.761Z,63.40
2019-05-02T19:04:58.350Z,58.00
2019-05-02T19:07:33.241Z,61.63
2019-05-02T19:10:04.301Z,60.83
2019-05-02T19:12:32.810Z,59.70
2019-05-02T19:15:06.760Z,62.27
2019-05-02T19:17:38.522Z,58.33
2019-05-02T19:20:13.080Z,63.83
2019-05-02T19:22:48.816Z,60.63
2019-05-02T19:25:13.529Z,59.80
2019-05-02T19:28:00.190Z,58.63
2019-05-02T19:30:30.199Z,62.80
2019-05-02T19:33:06.051Z,60.97
2019-05-02T19:35:32.656Z,58.17
2019-05-02T19:38:02.659Z,53.83
2019-05-02T19:40:32.643Z,47.17
2019-05-02T19:43:07.514Z,52.00
2019-05-02T19:45:35.368Z,54.97
2019-05-02T19:48:05.327Z,52.53
2019-05-02T19:50:43.062Z,52.53
2019-05-02T19:53:17.141Z,56.53
2019-05-02T19:55:42.727Z,54.77
2019-05-02T19:58:12.036Z,53.87
2019-05-02T20:00:46.074Z,54.50
2019-05-02T20:03:21.151Z,53.57
2019-05-02T20:05:44.260Z,55.87
2019-05-02T20:08:14.833Z,51.37
2019-05-02T20:10:49.361Z,48.17
2019-05-02T20:13:20.308Z,59.77
2019-05-02T20:16:05.651Z,69.60
2019-05-02T20:18:34.946Z,54.30
2019-05-02T20:21:29.593Z,52.10
2019-05-02T20:24:01.370Z,62.93
2019-05-02T20:26:32.379Z,56.00
2019-05-02T20:29:01.975Z,50.33
2019-05-02T20:31:32.302Z,46.53
2019-05-02T20:34:02.652Z,45.20
2019-05-02T20:36:32.396Z,36.50
2019-05-02T20:39:02.342Z,35.23
2019-05-02T20:41:34.042Z,36.67
2019-05-02T20:44:03.586Z,30.83
2019-05-02T20:46:33.157Z,24.53
2019-05-02T20:49:02.876Z,21.97
2019-05-02T20:51:32.475Z,17.40
2019-05-02T20:54:03.099Z,18.33
2019-05-02T20:56:32.898Z,15.67
2019-05-02T20:59:02.459Z,18.47
2019-05-02T21:01:32.616Z,13.90
2019-05-02T21:04:02.711Z,12.67
2019-05-02T21:06:48.279Z,12.33
2019-05-02T21:09:46.152Z,10.90
2019-05-02T21:12:15.895Z,14.03
2019-05-02T21:14:45.494Z,11.43
2019-05-02T21:17:15.017Z,10.97
2019-05-02T21:19:44.542Z,11.07
2019-05-02T21:22:16.985Z,12.80
2019-05-02T21:24:47.204Z,13.40
2019-05-02T21:27:16.825Z,12.10
2019-05-02T21:29:46.715Z,13.33
2019-05-02T21:32:16.243Z,10.37
2019-05-02T21:34:46.161Z,11.20
2019-05-02T21:37:15.755Z,11.83
2019-05-02T21:39:45.267Z,11.77
2019-05-02T21:42:15.062Z,12.33
2019-05-02T21:44:44.615Z,11.57
2019-05-02T21:47:14.164Z,11.33
2019-05-02T21:49:56.045Z,15.80
2019-05-02T21:52:45.797Z,13.37
2019-05-02T21:55:26.003Z,13.70
2019-05-02T21:57:55.540Z,12.03
2019-05-02T22:00:52.777Z,11.97
2019-05-02T22:03:24.311Z,12.60
2019-05-02T22:05:54.270Z,14.33
2019-05-02T22:08:23.810Z,12.57
2019-05-02T22:10:53.306Z,14.40
2019-05-02T22:13:23.161Z,13.03
2019-05-02T22:15:52.804Z,13.97
2019-05-02T22:18:22.348Z,11.50
2019-05-02T22:20:52.331Z,13.53
2019-05-02T22:23:21.989Z,12.17
2019-05-02T22:25:52.645Z,12.43
2019-05-02T22:28:22.319Z,11.57
2019-05-02T22:30:54.557Z,11.63
2019-05-02T22:33:23.641Z,12.63
2019-05-02T22:35:53.165Z,13.07
2019-05-02T22:39:02.011Z,11.93
2019-05-02T22:41:32.670Z,10.93
2019-05-02T22:44:02.284Z,12.13
2019-05-02T22:46:43.486Z,12.63
2019-05-02T22:49:14.589Z,11.40
2019-05-02T22:51:44.887Z,12.00
2019-05-02T22:54:26.718Z,12.30
2019-05-02T22:56:46.289Z,12.17
2019-05-02T22:59:15.874Z,12.30
2019-05-02T23:01:45.760Z,12.23
2019-05-02T23:04:15.307Z,11.83
2019-05-02T23:06:44.872Z,12.33
2019-05-02T23:09:14.347Z,12.47
2019-05-02T23:11:43.842Z,11.10
2019-05-02T23:14:13.390Z,15.17
2019-05-02T23:16:42.994Z,11.30
2019-05-02T23:19:12.620Z,13.20
2019-05-02T23:21:42.475Z,12.77
2019-05-02T23:24:18.069Z,13.33
2019-05-02T23:27:11.721Z,13.30
2019-05-02T23:29:42.549Z,14.13
2019-05-02T23:32:12.185Z,14.20
2019-05-02T23:34:41.859Z,14.50
2019-05-02T23:37:11.947Z,14.63
2019-05-02T23:39:41.862Z,14.33
2019-05-02T23:42:13.406Z,15.47
2019-05-02T23:44:43.649Z,16.10
2019-05-02T23:47:13.159Z,14.70
2019-05-02T23:49:42.818Z,16.47
2019-05-02T23:52:12.487Z,15.57
2019-05-02T23:54:49.947Z,17.00
2019-05-02T23:57:14.237Z,17.20
2019-05-02T23:59:43.722Z,17.50
